createdAt,value
2018-06-27T00:00:25.373Z,7.13
2018-06-27T00:02:56.761Z,8.43
2018-06-27T00:05:28.246Z,8.43
2018-06-27T00:07:59.769Z,8.33
2018-06-27T00:10:31.214Z,7.43
2018-06-27T00:13:03.530Z,7.87
2018-06-27T00:15:35.173Z,7.70
2018-06-27T00:18:06.764Z,8.40
2018-06-27T00:20:37.990Z,9.03
2018-06-27T00:23:09.093Z,8.50
2018-06-27T00:25:40.459Z,9.20
2018-06-27T00:28:12.094Z,8.63
2018-06-27T00:30:43.657Z,8.60
2018-06-27T00:33:15.582Z,8.13
2018-06-27T00:35:47.137Z,7.73
2018-06-27T00:38:19.180Z,8.07
2018-06-27T00:40:50.665Z,8.43
2018-06-27T00:43:22.231Z,8.20
2018-06-27T00:45:53.676Z,8.37
2018-06-27T00:48:28.956Z,8.57
2018-06-27T00:51:00.603Z,8.70
2018-06-27T00:53:37.343Z,8.77
2018-06-27T00:56:08.881Z,8.43
2018-06-27T00:58:40.403Z,8.13
2018-06-27T01:01:11.945Z,8.63
2018-06-27T01:03:43.152Z,8.77
2018-06-27T01:06:14.515Z,8.60
2018-06-27T01:08:46.176Z,9.20
2018-06-27T01:11:17.816Z,8.63
2018-06-27T01:13:49.308Z,8.93
2018-06-27T01:16:20.781Z,9.63
2018-06-27T01:18:52.338Z,9.07
2018-06-27T01:21:23.890Z,8.67
2018-06-27T01:23:55.499Z,9.13
2018-06-27T01:26:27.023Z,8.87
2018-06-27T01:28:58.881Z,8.43
2018-06-27T01:31:30.413Z,8.73
2018-06-27T01:34:01.942Z,8.83
2018-06-27T01:36:33.558Z,9.03
2018-06-27T01:39:08.612Z,8.63
2018-06-27T01:41:40.145Z,8.10
2018-06-27T01:44:11.725Z,8.53
2018-06-27T01:46:43.374Z,9.03
2018-06-27T01:49:14.841Z,8.47
2018-06-27T01:51:46.352Z,8.33
2018-06-27T01:54:17.760Z,9.27
2018-06-27T01:56:49.307Z,9.33
2018-06-27T01:59:20.745Z,9.67
2018-06-27T02:01:52.387Z,8.67
2018-06-27T02:04:23.835Z,8.47
2018-06-27T02:06:55.298Z,9.43
2018-06-27T02:09:27.060Z,9.67
2018-06-27T02:11:58.504Z,9.53
2018-06-27T02:14:30.015Z,8.47
2018-06-27T02:17:01.871Z,9.53
2018-06-27T02:19:33.529Z,9.83
2018-06-27T02:22:05.092Z,10.07
2018-06-27T02:24:39.499Z,9.63
2018-06-27T02:27:11.201Z,9.63
2018-06-27T02:29:42.666Z,9.57
2018-06-27T02:32:14.238Z,9.23
2018-06-27T02:34:45.918Z,8.90
2018-06-27T02:37:17.049Z,9.17
2018-06-27T02:39:48.429Z,9.30
2018-06-27T02:42:19.620Z,9.57
2018-06-27T02:44:50.814Z,9.20
2018-06-27T02:47:22.338Z,10.33
2018-06-27T02:49:53.914Z,9.23
2018-06-27T02:52:25.498Z,9.73
2018-06-27T02:54:57.278Z,9.43
2018-06-27T02:57:28.829Z,9.53
2018-06-27T03:00:00.321Z,9.17
2018-06-27T03:02:31.690Z,9.77
2018-06-27T03:05:03.957Z,8.83
2018-06-27T03:07:35.392Z,8.63
2018-06-27T03:10:07.221Z,9.27
2018-06-27T03:12:38.918Z,9.87
2018-06-27T03:15:10.876Z,9.00
2018-06-27T03:17:46.422Z,9.97
2018-06-27T03:20:18.062Z,9.07
2018-06-27T03:22:49.662Z,10.47
2018-06-27T03:25:21.351Z,10.00
2018-06-27T03:27:53.102Z,9.60
2018-06-27T03:30:24.552Z,10.07
2018-06-27T03:32:56.018Z,9.67
2018-06-27T03:35:34.097Z,10.43
2018-06-27T03:38:06.064Z,10.50
2018-06-27T03:40:37.967Z,10.23
2018-06-27T03:43:14.599Z,10.47
2018-06-27T03:45:52.864Z,9.87
2018-06-27T03:48:25.325Z,9.53
2018-06-27T03:50:57.467Z,9.77
2018-06-27T03:53:38.941Z,10.37
2018-06-27T03:56:12.021Z,9.07
2018-06-27T03:58:43.847Z,10.13
2018-06-27T04:01:15.334Z,10.67
2018-06-27T04:03:46.824Z,9.83
2018-06-27T04:06:18.309Z,9.90
2018-06-27T04:08:49.937Z,10.90
2018-06-27T04:11:21.517Z,10.73
2018-06-27T04:13:52.900Z,12.23
2018-06-27T04:16:24.579Z,10.60
2018-06-27T04:18:56.019Z,11.33
2018-06-27T04:21:27.465Z,10.40
2018-06-27T04:23:59.468Z,10.17
2018-06-27T04:26:30.927Z,11.20
2018-06-27T04:29:02.576Z,10.60
2018-06-27T04:31:34.368Z,9.97
2018-06-27T04:34:05.997Z,10.27
2018-06-27T04:36:37.493Z,10.17
2018-06-27T04:39:11.204Z,10.33
2018-06-27T04:41:42.738Z,10.20
2018-06-27T04:44:14.157Z,11.37
2018-06-27T04:46:45.688Z,10.70
2018-06-27T04:49:17.537Z,10.73
2018-06-27T04:51:49.062Z,11.30
2018-06-27T04:54:20.526Z,12.03
2018-06-27T04:56:52.394Z,11.40
2018-06-27T04:59:24.138Z,11.10
2018-06-27T05:01:55.680Z,11.63
2018-06-27T05:04:27.242Z,11.73
2018-06-27T05:06:58.848Z,11.87
2018-06-27T05:09:30.269Z,11.30
2018-06-27T05:12:02.027Z,11.93
2018-06-27T05:14:33.466Z,11.77
2018-06-27T05:17:05.480Z,11.73
2018-06-27T05:19:42.709Z,12.17
2018-06-27T05:22:14.834Z,12.57
2018-06-27T05:24:46.445Z,10.93
2018-06-27T05:27:18.059Z,12.43
2018-06-27T05:29:49.678Z,11.53
2018-06-27T05:32:21.224Z,11.33
2018-06-27T05:34:52.919Z,11.93
2018-06-27T05:37:24.404Z,13.17
2018-06-27T05:39:55.969Z,11.57
2018-06-27T05:42:27.552Z,12.53
2018-06-27T05:44:59.109Z,12.60
2018-06-27T05:47:30.959Z,12.07
2018-06-27T05:50:02.373Z,12.87
2018-06-27T05:52:33.813Z,13.13
2018-06-27T05:55:07.710Z,12.60
2018-06-27T05:57:40.726Z,12.93
2018-06-27T06:00:13.444Z,11.83
2018-06-27T06:02:44.969Z,13.13
2018-06-27T06:05:16.462Z,12.97
2018-06-27T06:07:48.013Z,13.20
2018-06-27T06:10:19.930Z,12.60
2018-06-27T06:12:51.574Z,12.37
2018-06-27T06:15:23.290Z,13.93
2018-06-27T06:17:54.750Z,12.43
2018-06-27T06:20:26.256Z,12.47
2018-06-27T06:22:57.994Z,12.10
2018-06-27T06:25:29.656Z,13.07
2018-06-27T06:28:00.856Z,12.50
2018-06-27T06:30:32.668Z,12.93
2018-06-27T06:33:04.445Z,13.07
2018-06-27T06:35:36.485Z,12.53
2018-06-27T06:38:08.115Z,12.03
2018-06-27T06:40:39.743Z,11.77
2018-06-27T06:43:11.653Z,13.63
2018-06-27T06:45:44.050Z,13.17
2018-06-27T06:48:15.603Z,12.93
2018-06-27T06:50:47.142Z,12.77
2018-06-27T06:53:18.702Z,12.23
2018-06-27T06:55:50.228Z,13.47
2018-06-27T06:58:21.744Z,13.13
2018-06-27T07:00:53.192Z,14.20
2018-06-27T07:03:24.777Z,11.67
2018-06-27T07:05:56.257Z,12.70
2018-06-27T07:08:28.339Z,13.60
2018-06-27T07:11:00.201Z,12.57
2018-06-27T07:13:31.792Z,13.00
2018-06-27T07:16:04.154Z,12.73
2018-06-27T07:18:35.995Z,12.77
2018-06-27T07:21:08.442Z,13.53
2018-06-27T07:23:39.904Z,12.23
2018-06-27T07:26:11.379Z,12.57
2018-06-27T07:28:42.914Z,13.67
2018-06-27T07:31:15.034Z,12.70
2018-06-27T07:33:46.313Z,12.83
2018-06-27T07:36:17.954Z,13.70
2018-06-27T07:38:49.831Z,13.23
2018-06-27T07:41:22.250Z,13.40
2018-06-27T07:43:54.158Z,12.93
2018-06-27T07:46:25.705Z,13.97
2018-06-27T07:48:58.281Z,12.77
2018-06-27T07:51:29.728Z,13.80
2018-06-27T07:54:01.522Z,12.87
2018-06-27T07:56:33.309Z,12.63
2018-06-27T07:59:05.297Z,12.83
2018-06-27T08:01:36.944Z,11.57
2018-06-27T08:04:08.684Z,12.03
2018-06-27T08:06:46.020Z,12.33
2018-06-27T08:09:17.970Z,11.70
2018-06-27T08:11:49.550Z,11.97
2018-06-27T08:14:21.238Z,12.40
2018-06-27T08:16:53.029Z,13.47
2018-06-27T08:19:25.030Z,13.90
2018-06-27T08:21:57.527Z,13.63
2018-06-27T08:24:29.198Z,12.57
2018-06-27T08:27:01.318Z,12.27
2018-06-27T08:29:32.820Z,11.13
2018-06-27T08:32:04.698Z,12.53
2018-06-27T08:34:36.298Z,11.67
2018-06-27T08:37:08.074Z,12.40
2018-06-27T08:39:40.445Z,11.90
2018-06-27T08:42:11.843Z,13.20
2018-06-27T08:44:44.009Z,12.80
2018-06-27T08:47:15.445Z,13.17
2018-06-27T08:49:47.654Z,11.97
2018-06-27T08:52:19.585Z,11.80
2018-06-27T08:54:51.179Z,12.43
2018-06-27T08:57:23.118Z,12.87
2018-06-27T08:59:54.666Z,11.97
2018-06-27T09:02:26.530Z,12.27
2018-06-27T09:04:58.565Z,11.40
2018-06-27T09:07:30.209Z,11.73
2018-06-27T09:10:01.314Z,11.63
2018-06-27T09:12:32.597Z,11.57
2018-06-27T09:15:04.347Z,11.43
2018-06-27T09:17:35.849Z,11.70
2018-06-27T09:20:07.430Z,12.60
2018-06-27T09:22:39.039Z,11.83
2018-06-27T09:25:10.860Z,11.97
2018-06-27T09:27:42.407Z,10.80
2018-06-27T09:30:13.989Z,12.00
2018-06-27T09:32:45.295Z,10.53
2018-06-27T09:35:16.849Z,11.60
2018-06-27T09:37:49.064Z,11.07
2018-06-27T09:40:22.143Z,10.03
2018-06-27T09:42:55.075Z,11.50
2018-06-27T09:45:27.010Z,10.07
2018-06-27T09:47:58.765Z,13.40
2018-06-27T09:50:30.743Z,11.07
2018-06-27T09:53:02.362Z,10.83
2018-06-27T09:55:33.641Z,10.57
2018-06-27T09:58:05.028Z,10.70
2018-06-27T10:00:38.500Z,11.27
2018-06-27T10:03:11.294Z,9.27
2018-06-27T10:05:42.947Z,10.13
2018-06-27T10:08:14.494Z,12.33
2018-06-27T10:10:46.415Z,13.07
2018-06-27T10:13:18.104Z,10.37
2018-06-27T10:15:49.495Z,9.70
2018-06-27T10:18:20.701Z,9.80
2018-06-27T10:20:52.041Z,10.17
2018-06-27T10:23:24.086Z,8.83
2018-06-27T10:25:55.856Z,10.53
2018-06-27T10:28:27.393Z,9.80
2018-06-27T10:30:59.960Z,8.40
2018-06-27T10:33:32.085Z,7.22
2018-06-27T10:36:04.437Z,6.45
2018-06-27T10:38:36.833Z,5.28
2018-06-27T10:41:08.641Z,5.17
2018-06-27T10:43:40.815Z,5.60
2018-06-27T10:46:13.563Z,4.33
2018-06-27T10:48:46.284Z,6.12
2018-06-27T10:51:19.841Z,6.50
2018-06-27T10:53:52.046Z,6.35
2018-06-27T10:56:24.055Z,6.03
2018-06-27T10:58:56.179Z,6.10
2018-06-27T11:01:28.262Z,6.53
2018-06-27T11:04:00.414Z,5.55
2018-06-27T11:06:32.316Z,6.25
2018-06-27T11:09:06.498Z,5.20
2018-06-27T11:11:38.335Z,5.28
2018-06-27T11:14:10.258Z,4.72
2018-06-27T11:16:42.732Z,4.72
2018-06-27T11:19:14.751Z,4.28
2018-06-27T11:21:46.964Z,5.05
2018-06-27T11:24:19.468Z,4.30
2018-06-27T11:26:51.702Z,3.52
2018-06-27T11:29:24.215Z,3.45
2018-06-27T11:31:56.513Z,3.90
2018-06-27T11:34:28.732Z,4.25
2018-06-27T11:37:01.021Z,3.90
2018-06-27T11:39:33.250Z,3.80
2018-06-27T11:42:05.344Z,3.67
2018-06-27T11:44:37.456Z,3.22
2018-06-27T11:47:09.935Z,3.10
2018-06-27T11:49:42.589Z,2.95
2018-06-27T11:52:15.058Z,3.20
2018-06-27T11:54:51.662Z,2.90
2018-06-27T11:57:23.880Z,2.90
2018-06-27T11:59:56.027Z,3.25
2018-06-27T12:02:28.146Z,2.98
2018-06-27T12:05:00.294Z,3.10
2018-06-27T12:07:32.675Z,3.62
2018-06-27T12:10:05.898Z,3.40
2018-06-27T12:12:38.627Z,3.70
2018-06-27T12:15:10.999Z,2.98
2018-06-27T12:17:43.437Z,3.12
2018-06-27T12:20:15.560Z,3.20
2018-06-27T12:22:47.674Z,3.40
2018-06-27T12:25:19.730Z,3.37
2018-06-27T12:27:52.098Z,3.02
2018-06-27T12:30:25.519Z,3.40
2018-06-27T12:32:57.514Z,3.37
2018-06-27T12:35:29.986Z,3.33
2018-06-27T12:38:02.059Z,2.77
2018-06-27T12:40:34.105Z,3.10
2018-06-27T12:43:06.400Z,2.52
2018-06-27T12:45:38.990Z,2.40
2018-06-27T12:48:11.254Z,2.33
2018-06-27T12:50:43.322Z,2.83
2018-06-27T12:53:16.042Z,3.05
2018-06-27T12:55:48.020Z,2.12
2018-06-27T12:58:20.392Z,2.35
2018-06-27T13:00:52.764Z,2.05
2018-06-27T13:03:25.427Z,2.15
2018-06-27T13:05:57.825Z,2.35
2018-06-27T13:08:30.195Z,2.27
2018-06-27T13:11:02.346Z,2.12
2018-06-27T13:13:34.757Z,2.10
2018-06-27T13:16:07.816Z,2.10
2018-06-27T13:18:40.552Z,1.85
2018-06-27T13:21:12.775Z,2.30
2018-06-27T13:23:44.900Z,2.10
2018-06-27T13:26:16.982Z,2.22
2018-06-27T13:28:49.179Z,1.85
2018-06-27T13:31:21.372Z,1.82
2018-06-27T13:33:53.762Z,2.22
2018-06-27T13:36:26.429Z,2.17
2018-06-27T13:38:58.928Z,1.98
2018-06-27T13:41:31.051Z,1.82
2018-06-27T13:44:03.389Z,1.90
2018-06-27T13:46:35.980Z,1.77
2018-06-27T13:49:08.649Z,1.67
2018-06-27T13:51:41.302Z,1.60
2018-06-27T13:54:13.760Z,1.80
2018-06-27T13:56:45.890Z,1.75
2018-06-27T13:59:18.104Z,1.80
2018-06-27T14:01:50.519Z,1.92
2018-06-27T14:04:22.801Z,1.70
2018-06-27T14:06:54.947Z,1.87
2018-06-27T14:09:27.516Z,1.67
2018-06-27T14:11:59.910Z,1.60
2018-06-27T14:14:32.361Z,1.42
2018-06-27T14:17:06.402Z,1.42
2018-06-27T14:19:38.950Z,1.45
2018-06-27T14:22:11.273Z,1.60
2018-06-27T14:24:43.454Z,1.60
2018-06-27T14:27:16.173Z,1.72
2018-06-27T14:29:48.891Z,1.70
2018-06-27T14:32:21.094Z,1.72
2018-06-27T14:34:53.225Z,1.80
2018-06-27T14:37:25.377Z,1.62
2018-06-27T14:39:57.659Z,1.92
2018-06-27T14:42:30.039Z,1.85
2018-06-27T14:45:02.214Z,2.02
2018-06-27T14:47:34.570Z,1.80
2018-06-27T14:50:06.719Z,2.17
2018-06-27T14:52:39.169Z,2.05
2018-06-27T14:55:11.449Z,2.27
2018-06-27T14:57:43.859Z,2.10
2018-06-27T15:00:16.230Z,2.08
2018-06-27T15:02:48.717Z,2.37
2018-06-27T15:05:21.050Z,2.37
2018-06-27T15:07:53.352Z,2.00
2018-06-27T15:10:26.133Z,1.90
2018-06-27T15:12:58.628Z,1.92
2018-06-27T15:15:30.951Z,1.98
2018-06-27T15:18:03.407Z,2.20
2018-06-27T15:20:35.628Z,2.08
2018-06-27T15:23:08.165Z,2.02
2018-06-27T15:25:40.382Z,2.15
2018-06-27T15:28:12.461Z,1.80
2018-06-27T15:30:44.590Z,1.95
2018-06-27T15:33:16.699Z,2.50
2018-06-27T15:35:48.727Z,2.05
2018-06-27T15:38:20.928Z,2.20
2018-06-27T15:40:53.771Z,2.20
2018-06-27T15:43:25.896Z,2.33
2018-06-27T15:45:57.721Z,2.40
2018-06-27T15:48:30.135Z,2.67
2018-06-27T15:51:02.365Z,2.80
2018-06-27T15:53:34.597Z,2.70
2018-06-27T15:56:06.930Z,2.60
2018-06-27T15:58:39.608Z,2.60
2018-06-27T16:01:11.733Z,2.95
2018-06-27T16:03:43.785Z,2.25
2018-06-27T16:06:15.993Z,2.70
2018-06-27T16:08:48.259Z,2.25
2018-06-27T16:11:20.389Z,2.47
2018-06-27T16:13:52.901Z,2.70
2018-06-27T16:16:25.169Z,2.27
2018-06-27T16:18:57.491Z,2.40
2018-06-27T16:21:30.126Z,2.40
2018-06-27T16:24:02.170Z,2.40
2018-06-27T16:26:34.092Z,2.37
2018-06-27T16:29:06.205Z,2.02
2018-06-27T16:31:38.371Z,2.17
2018-06-27T16:34:10.979Z,2.40
2018-06-27T16:36:43.257Z,2.40
2018-06-27T16:39:15.501Z,2.00
2018-06-27T16:41:47.869Z,2.67
2018-06-27T16:44:20.303Z,2.12
2018-06-27T16:46:52.699Z,1.98
2018-06-27T16:49:24.295Z,3.15
2018-06-27T16:51:56.775Z,2.12
2018-06-27T16:54:29.021Z,2.12
2018-06-27T16:57:01.149Z,2.00
2018-06-27T16:59:33.378Z,1.90
2018-06-27T17:02:06.517Z,1.60
2018-06-27T17:04:38.636Z,1.70
2018-06-27T17:07:10.494Z,1.70
2018-06-27T17:09:42.085Z,1.43
2018-06-27T17:12:14.254Z,1.43
2018-06-27T17:14:46.053Z,1.60
2018-06-27T17:17:18.681Z,1.70
2018-06-27T17:19:50.933Z,1.60
2018-06-27T17:22:22.205Z,1.67
2018-06-27T17:24:54.106Z,1.60
2018-06-27T17:27:25.924Z,1.93
2018-06-27T17:30:00.120Z,1.50
2018-06-27T17:32:32.643Z,1.20
2018-06-27T17:35:08.302Z,1.50
2018-06-27T17:37:40.246Z,1.20
2018-06-27T17:40:12.477Z,1.33
2018-06-27T17:42:44.745Z,1.50
2018-06-27T17:45:16.844Z,1.27
2018-06-27T17:47:48.713Z,1.40
2018-06-27T17:50:20.564Z,1.50
2018-06-27T17:52:52.611Z,1.30
2018-06-27T17:55:24.236Z,1.10
2018-06-27T17:57:56.013Z,1.23
2018-06-27T18:00:27.438Z,1.53
2018-06-27T18:02:59.015Z,1.10
2018-06-27T18:05:31.110Z,1.00
2018-06-27T18:08:03.204Z,1.00
2018-06-27T18:10:35.068Z,1.30
2018-06-27T18:13:08.507Z,1.00
2018-06-27T18:15:40.175Z,0.93
2018-06-27T18:18:11.598Z,1.07
2018-06-27T18:20:42.856Z,1.10
2018-06-27T18:23:14.237Z,0.87
2018-06-27T18:25:45.861Z,1.00
2018-06-27T18:28:18.027Z,0.90
2018-06-27T18:30:50.345Z,0.90
2018-06-27T18:33:22.601Z,1.17
2018-06-27T18:35:54.715Z,1.13
2018-06-27T18:38:26.438Z,1.00
2018-06-27T18:40:58.441Z,0.80
2018-06-27T18:43:30.203Z,1.17
2018-06-27T18:46:01.786Z,0.90
2018-06-27T18:48:33.343Z,0.80
2018-06-27T18:51:05.166Z,0.90
2018-06-27T18:53:36.907Z,0.90
2018-06-27T18:56:08.730Z,1.07
2018-06-27T18:58:40.411Z,1.10
2018-06-27T19:01:12.418Z,1.37
2018-06-27T19:03:44.137Z,3.90
2018-06-27T19:06:16.166Z,1.90
2018-06-27T19:08:47.760Z,1.20
2018-06-27T19:11:19.841Z,1.30
2018-06-27T19:13:51.894Z,1.20
2018-06-27T19:16:23.965Z,1.20
2018-06-27T19:18:56.222Z,1.17
2018-06-27T19:21:28.309Z,1.17
2018-06-27T19:24:00.141Z,1.10
2018-06-27T19:26:31.976Z,1.37
2018-06-27T19:29:03.830Z,1.30
2018-06-27T19:31:35.429Z,1.23
2018-06-27T19:34:07.139Z,1.10
2018-06-27T19:36:39.235Z,1.23
2018-06-27T19:39:12.586Z,1.30
2018-06-27T19:41:44.403Z,1.00
2018-06-27T19:44:16.891Z,0.93
2018-06-27T19:46:49.179Z,1.00
2018-06-27T19:49:21.029Z,1.30
2018-06-27T19:51:53.223Z,1.23
2018-06-27T19:54:24.905Z,1.17
2018-06-27T19:56:56.483Z,1.00
2018-06-27T19:59:28.322Z,1.20
2018-06-27T20:02:00.482Z,1.50
2018-06-27T20:04:32.455Z,1.30
2018-06-27T20:07:04.613Z,1.30
2018-06-27T20:09:36.299Z,1.20
2018-06-27T20:12:08.644Z,1.30
2018-06-27T20:14:40.631Z,1.50
2018-06-27T20:17:12.300Z,1.20
2018-06-27T20:19:44.228Z,1.17
2018-06-27T20:22:15.889Z,1.23
2018-06-27T20:24:47.351Z,1.50
2018-06-27T20:27:18.953Z,1.53
2018-06-27T20:29:50.686Z,1.33
2018-06-27T20:32:22.747Z,1.40
2018-06-27T20:34:54.130Z,1.77
2018-06-27T20:37:25.888Z,1.63
2018-06-27T20:39:57.472Z,1.63
2018-06-27T20:42:29.563Z,1.50
2018-06-27T20:45:01.237Z,1.60
2018-06-27T20:47:32.788Z,1.50
2018-06-27T20:50:04.485Z,1.93
2018-06-27T20:52:36.305Z,1.33
2018-06-27T20:55:08.588Z,1.30
2018-06-27T20:57:40.249Z,1.30
2018-06-27T21:00:12.098Z,1.37
2018-06-27T21:02:44.065Z,1.63
2018-06-27T21:05:15.481Z,1.77
2018-06-27T21:07:47.110Z,1.60
2018-06-27T21:10:18.734Z,1.53
2018-06-27T21:12:50.385Z,1.70
2018-06-27T21:15:22.087Z,1.80
2018-06-27T21:17:53.958Z,1.67
2018-06-27T21:20:25.579Z,1.73
2018-06-27T21:22:57.528Z,1.83
2018-06-27T21:25:30.042Z,1.90
2018-06-27T21:28:02.057Z,1.87
2018-06-27T21:30:34.006Z,1.67
2018-06-27T21:33:06.026Z,1.50
2018-06-27T21:35:37.959Z,1.70
2018-06-27T21:38:09.576Z,1.40
2018-06-27T21:40:41.259Z,1.47
2018-06-27T21:43:13.062Z,1.87
2018-06-27T21:45:44.626Z,1.80
2018-06-27T21:48:16.250Z,1.77
2018-06-27T21:50:47.814Z,2.20
2018-06-27T21:53:19.479Z,1.97
2018-06-27T21:55:51.133Z,1.93
2018-06-27T21:58:22.554Z,1.90
2018-06-27T22:00:54.110Z,1.40
2018-06-27T22:03:25.770Z,1.60
2018-06-27T22:05:56.918Z,1.93
2018-06-27T22:08:28.314Z,1.80
2018-06-27T22:11:00.153Z,1.70
2018-06-27T22:13:31.792Z,1.90
2018-06-27T22:16:04.037Z,1.97
2018-06-27T22:18:35.595Z,1.90
2018-06-27T22:21:07.246Z,1.83
2018-06-27T22:23:39.406Z,1.77
2018-06-27T22:26:11.055Z,2.07
2018-06-27T22:28:42.822Z,1.73
2018-06-27T22:31:14.550Z,1.70
2018-06-27T22:33:46.567Z,1.90
2018-06-27T22:36:18.126Z,1.77
2018-06-27T22:38:49.925Z,2.00
2018-06-27T22:41:21.804Z,1.90
2018-06-27T22:43:53.571Z,1.90
2018-06-27T22:46:24.742Z,1.83
2018-06-27T22:48:56.279Z,1.90
2018-06-27T22:51:27.943Z,1.73
2018-06-27T22:53:59.578Z,1.60
2018-06-27T22:56:31.217Z,1.63
2018-06-27T22:59:02.677Z,1.70
2018-06-27T23:01:34.536Z,1.60
2018-06-27T23:04:06.045Z,1.80
2018-06-27T23:06:38.209Z,1.53
2018-06-27T23:09:11.021Z,1.47
2018-06-27T23:11:42.551Z,1.47
2018-06-27T23:14:14.034Z,2.10
2018-06-27T23:16:45.640Z,1.77
2018-06-27T23:19:17.245Z,1.77
2018-06-27T23:21:48.894Z,2.00
2018-06-27T23:24:20.468Z,1.93
2018-06-27T23:26:52.420Z,1.77
2018-06-27T23:29:24.369Z,1.93
2018-06-27T23:31:56.225Z,2.20
2018-06-27T23:34:27.769Z,2.20
2018-06-27T23:36:59.604Z,2.00
2018-06-27T23:39:31.475Z,1.97
2018-06-27T23:42:03.565Z,1.90
2018-06-27T23:44:35.085Z,1.90
2018-06-27T23:47:06.900Z,1.77
2018-06-27T23:49:38.550Z,1.87
2018-06-27T23:52:10.259Z,1.93
2018-06-27T23:54:41.824Z,1.83
2018-06-27T23:57:13.749Z,1.80
2018-06-27T23:59:46.459Z,1.77
